Cleveland, OH

11:12 AM EDT on September 30, 2016 (GMT -0400)
LeanDog | | Change Station

Elev 574 ft 41.51 °N, 81.69 °W | Updated 34 seconds ago

Mostly Cloudy
Mostly Cloudy
65.0 °F
Feels Like 65.0 °F
N
3.0
Wind Variable Wind from SSW

Today
High -- | Low -- °F
--% Chance of Precip.
Yesterday
High -- | Low -- °F
Precip. -- in
Pressure 30.12 in
Visibility 20.0 miles
Clouds Scattered Clouds 1500 ft
Mostly Cloudy 6000 ft
Mostly Cloudy 15000 ft
Dew Point 58 °F
Humidity 79%
Rainfall 0.14 in
Snow Depth Not available.
7:22 AM 7:09 PM
Waning Crescent, 0% visible
METAR KCGF 301445Z 11011G19KT 20SM SCT015 BKN060 BKN150 18/15 A3012
Pressure 30.12 in
Visibility 20.0 miles
Clouds Scattered Clouds 1500 ft
Mostly Cloudy 6000 ft
Mostly Cloudy 15000 ft
Dew Point 58 °F
Humidity 79%
Rainfall 0.14 in
Snow Depth Not available.
7:22 AM 7:09 PM
Waning Crescent, 0% visible
METAR KCGF 301445Z 11011G19KT 20SM SCT015 BKN060 BKN150 18/15 A3012

10-Day Weather Forecast

Almanac

Astronomy

Sep. 30, 2016 Rise Set
Actual Time
Civil Twilight
Nautical Twilight
Astronomical Twilight
Moon
Length of Visible Light
Length of Day
Tomorrow will be .
, % of the Moon is Illuminated

Today's Extremes

State Highs State Lows

Community

WunderPhotos

Upload Photos

1,942,736 photos uploaded!

WunderBlog® & News

Nearby

Air Quality

  Air Quality AQ Index Pollutant
Not available.

Snow Depth

Station Depth Elevation

Earthquake Activity

City Distance Mag. Time & Date
Minimum magnitude displayed is 2.5.

Coastal Water Temperatures

Place Temperature

Stations

Nearby Weather Stations

Station Location Temp. Windchill Dew Point Humidity Wind Precip. Elev Updated Type
                   

Watches & Warnings

There are currently no watches in effect.